createdAt,value
2023-05-16T00:01:55.623Z,92.30
2023-05-16T00:04:53.960Z,92.40
2023-05-16T00:07:51.911Z,92.50
2023-05-16T00:10:49.846Z,92.40
2023-05-16T00:13:48.454Z,92.70
2023-05-16T00:16:47.935Z,92.40
2023-05-16T00:19:48.092Z,92.20
2023-05-16T00:22:46.758Z,92.70
2023-05-16T00:25:45.148Z,92.70
2023-05-16T00:28:43.070Z,92.60
2023-05-16T00:31:41.113Z,91.50
2023-05-16T00:34:39.172Z,92.20
2023-05-16T00:37:37.777Z,91.60
2023-05-16T00:40:35.659Z,91.70
2023-05-16T00:43:33.571Z,91.00
2023-05-16T00:46:31.434Z,90.50
2023-05-16T00:49:30.257Z,90.30
2023-05-16T00:52:28.386Z,90.00
2023-05-16T00:55:27.127Z,89.90
2023-05-16T00:58:26.150Z,89.40
2023-05-16T01:01:26.613Z,89.10
2023-05-16T01:04:25.323Z,89.30
2023-05-16T01:07:23.591Z,88.80
2023-05-16T01:10:21.758Z,88.40
2023-05-16T01:13:42.781Z,89.00
2023-05-16T01:16:45.370Z,88.30
2023-05-16T01:19:58.202Z,88.10
2023-05-16T01:22:56.073Z,88.10
2023-05-16T01:26:28.631Z,87.40
2023-05-16T01:29:27.013Z,87.70
2023-05-16T01:32:25.323Z,87.40
2023-05-16T01:35:23.424Z,87.00
2023-05-16T01:38:31.446Z,87.10
2023-05-16T01:41:43.298Z,87.30
2023-05-16T01:45:22.828Z,87.00
2023-05-16T01:48:27.908Z,86.30
2023-05-16T01:51:31.274Z,87.00
2023-05-16T01:54:34.097Z,86.10
2023-05-16T01:57:32.580Z,86.10
2023-05-16T02:00:30.363Z,85.40
2023-05-16T02:03:28.575Z,85.50
2023-05-16T02:06:27.128Z,85.40
2023-05-16T02:09:26.641Z,85.30
2023-05-16T02:12:25.297Z,85.10
2023-05-16T02:15:23.208Z,84.30
2023-05-16T02:18:21.055Z,84.90
2023-05-16T02:21:18.973Z,83.90
2023-05-16T02:24:16.941Z,83.90
2023-05-16T02:27:14.873Z,82.80
2023-05-16T02:30:13.218Z,82.90
2023-05-16T02:33:12.095Z,83.20
2023-05-16T02:36:10.419Z,83.60
2023-05-16T02:39:10.481Z,83.80
2023-05-16T02:42:08.988Z,82.80
2023-05-16T02:45:07.231Z,82.80
2023-05-16T02:48:05.365Z,82.50
2023-05-16T02:51:03.258Z,81.40
2023-05-16T02:54:01.808Z,80.20
2023-05-16T02:56:59.627Z,82.20
2023-05-16T02:59:57.541Z,80.30
2023-05-16T03:02:55.419Z,80.50
2023-05-16T03:05:53.833Z,79.90
2023-05-16T03:08:51.693Z,77.50
2023-05-16T03:11:49.676Z,78.30
2023-05-16T03:14:47.522Z,77.70
2023-05-16T03:17:45.488Z,77.80
2023-05-16T03:20:43.386Z,79.20
2023-05-16T03:23:43.095Z,77.50
2023-05-16T03:26:41.140Z,79.90
2023-05-16T03:29:39.083Z,79.70
2023-05-16T03:32:37.061Z,78.50
2023-05-16T03:35:36.310Z,77.10
2023-05-16T03:38:34.313Z,76.60
2023-05-16T03:41:32.134Z,76.80
2023-05-16T03:44:30.225Z,78.50
2023-05-16T03:47:31.812Z,75.90
2023-05-16T03:50:29.663Z,77.60
2023-05-16T03:53:27.807Z,76.10
2023-05-16T03:56:25.881Z,74.90
2023-05-16T03:59:23.670Z,75.00
2023-05-16T04:02:21.654Z,74.20
2023-05-16T04:05:19.594Z,74.20
2023-05-16T04:08:17.516Z,75.30
2023-05-16T04:11:15.372Z,72.60
2023-05-16T04:14:13.284Z,74.90
2023-05-16T04:17:11.451Z,75.20
2023-05-16T04:20:09.773Z,75.50
2023-05-16T04:23:07.618Z,73.30
2023-05-16T04:26:05.682Z,74.60
2023-05-16T04:29:03.707Z,74.40
2023-05-16T04:32:01.819Z,73.30
2023-05-16T04:34:59.712Z,73.60
2023-05-16T04:37:57.710Z,73.20
2023-05-16T04:40:55.632Z,73.00
2023-05-16T04:43:54.093Z,72.60
2023-05-16T04:46:52.240Z,74.80
2023-05-16T04:49:50.206Z,74.60
2023-05-16T04:52:48.102Z,72.00
2023-05-16T04:55:46.193Z,71.00
2023-05-16T04:58:44.139Z,72.90
2023-05-16T05:01:42.289Z,74.20
2023-05-16T05:04:40.359Z,70.60
2023-05-16T05:07:38.309Z,71.80
2023-05-16T05:10:36.359Z,69.60
2023-05-16T05:13:34.343Z,72.50
2023-05-16T05:16:32.526Z,70.40
2023-05-16T05:19:30.443Z,70.90
2023-05-16T05:22:28.463Z,70.60
2023-05-16T05:25:27.196Z,71.70
2023-05-16T05:28:25.307Z,70.00
2023-05-16T05:31:23.264Z,68.40
2023-05-16T05:34:21.590Z,67.50
2023-05-16T05:37:19.694Z,69.50
2023-05-16T05:40:17.563Z,66.80
2023-05-16T05:43:15.619Z,69.00
2023-05-16T05:46:13.462Z,66.60
2023-05-16T05:49:11.512Z,68.30
2023-05-16T05:52:09.446Z,68.50
2023-05-16T05:55:07.892Z,68.40
2023-05-16T05:58:08.963Z,65.80
2023-05-16T06:01:06.859Z,64.40
2023-05-16T06:04:04.889Z,64.90
2023-05-16T06:07:02.665Z,67.10
2023-05-16T06:10:05.166Z,67.90
2023-05-16T06:13:03.036Z,67.00
2023-05-16T06:16:01.118Z,67.80
2023-05-16T06:18:59.034Z,67.80
2023-05-16T06:21:57.365Z,63.80
2023-05-16T06:24:55.313Z,66.30
2023-05-16T06:27:53.197Z,65.30
2023-05-16T06:30:52.923Z,62.80
2023-05-16T06:33:51.429Z,65.10
2023-05-16T06:36:49.250Z,62.50
2023-05-16T06:39:48.485Z,61.30
2023-05-16T06:42:46.386Z,62.00
2023-05-16T06:45:47.359Z,62.20
2023-05-16T06:48:45.419Z,62.30
2023-05-16T06:51:43.356Z,62.20
2023-05-16T06:54:41.533Z,62.60
2023-05-16T06:57:39.548Z,61.90
2023-05-16T07:00:37.487Z,62.90
2023-05-16T07:03:36.020Z,61.00
2023-05-16T07:06:34.083Z,58.60
2023-05-16T07:09:32.201Z,59.30
2023-05-16T07:12:30.897Z,60.90
2023-05-16T07:15:32.198Z,58.90
2023-05-16T07:18:30.234Z,61.20
2023-05-16T07:21:28.559Z,59.00
2023-05-16T07:24:26.692Z,58.30
2023-05-16T07:27:24.698Z,59.80
2023-05-16T07:30:22.752Z,58.50
2023-05-16T07:33:20.630Z,58.50
2023-05-16T07:36:18.606Z,58.00
2023-05-16T07:39:17.477Z,58.40
2023-05-16T07:42:16.333Z,57.90
2023-05-16T07:45:14.236Z,56.30
2023-05-16T07:48:12.430Z,56.00
2023-05-16T07:51:10.408Z,56.30
2023-05-16T07:54:09.187Z,55.60
2023-05-16T07:57:07.916Z,56.00
2023-05-16T08:00:06.423Z,54.80
2023-05-16T08:03:04.780Z,55.00
2023-05-16T08:06:03.003Z,54.00
2023-05-16T08:09:01.519Z,53.40
2023-05-16T08:12:04.207Z,53.50
2023-05-16T08:15:02.353Z,51.70
2023-05-16T08:18:00.503Z,51.20
2023-05-16T08:20:58.579Z,50.60
2023-05-16T08:23:56.595Z,49.50
2023-05-16T08:26:54.606Z,51.30
2023-05-16T08:29:52.420Z,50.90
2023-05-16T08:32:50.426Z,51.60
2023-05-16T08:35:50.151Z,52.00
2023-05-16T08:38:48.701Z,54.50
2023-05-16T08:41:47.025Z,54.00
2023-05-16T08:44:44.906Z,51.50
2023-05-16T08:47:44.948Z,54.00
2023-05-16T08:50:44.676Z,52.60
2023-05-16T08:54:04.042Z,50.10
2023-05-16T08:57:03.511Z,50.90
2023-05-16T09:00:01.888Z,50.00
2023-05-16T09:03:00.776Z,50.20
2023-05-16T09:05:58.922Z,51.10
2023-05-16T09:08:57.152Z,50.90
2023-05-16T09:11:55.276Z,51.50
2023-05-16T09:14:56.853Z,52.90
2023-05-16T09:17:54.897Z,50.60
2023-05-16T09:20:54.579Z,49.00
2023-05-16T09:23:53.219Z,47.90
2023-05-16T09:26:53.269Z,47.30
2023-05-16T09:29:52.684Z,52.50
2023-05-16T09:32:54.288Z,53.00
2023-05-16T09:36:01.918Z,51.40
2023-05-16T09:39:00.061Z,49.80
2023-05-16T09:42:00.206Z,51.10
2023-05-16T09:44:58.468Z,51.10
2023-05-16T09:48:02.600Z,51.20
2023-05-16T09:51:04.833Z,52.20
2023-05-16T09:54:02.822Z,51.80
2023-05-16T09:57:03.002Z,52.60
2023-05-16T10:00:06.639Z,48.50
2023-05-16T10:03:05.670Z,46.80
2023-05-16T10:06:06.263Z,50.50
2023-05-16T10:09:04.746Z,47.70
2023-05-16T10:12:05.014Z,45.90
2023-05-16T10:15:04.739Z,46.70
2023-05-16T10:18:05.060Z,52.70
2023-05-16T10:21:09.654Z,53.70
2023-05-16T10:24:13.898Z,47.50
2023-05-16T10:27:13.082Z,51.90
2023-05-16T10:30:12.316Z,55.10
2023-05-16T10:33:17.326Z,55.10
2023-05-16T10:36:16.990Z,55.80
2023-05-16T10:39:16.119Z,55.40
2023-05-16T10:42:18.876Z,52.40
2023-05-16T10:45:21.369Z,50.80
2023-05-16T10:48:36.886Z,49.40
2023-05-16T10:51:39.468Z,52.80
2023-05-16T10:54:43.395Z,51.20
2023-05-16T10:57:45.188Z,48.60
2023-05-16T11:00:43.040Z,49.50
2023-05-16T11:04:01.006Z,53.40
2023-05-16T11:06:59.622Z,53.50
2023-05-16T11:10:12.224Z,55.20
2023-05-16T11:13:10.716Z,51.30
2023-05-16T11:16:30.854Z,52.40
2023-05-16T11:19:41.315Z,50.90
2023-05-16T11:22:42.614Z,48.20
2023-05-16T11:25:41.972Z,49.70
2023-05-16T11:28:40.230Z,53.50
2023-05-16T11:31:38.539Z,50.90
2023-05-16T11:34:40.579Z,58.90
2023-05-16T11:37:40.090Z,56.60
2023-05-16T11:40:38.127Z,57.20
2023-05-16T11:43:44.161Z,50.30
2023-05-16T11:46:42.404Z,48.50
2023-05-16T11:49:43.229Z,51.00
2023-05-16T11:52:44.695Z,56.80
2023-05-16T11:55:43.059Z,49.40
2023-05-16T11:58:41.656Z,49.40
2023-05-16T12:01:40.862Z,49.60
2023-05-16T12:04:39.385Z,49.80
2023-05-16T12:07:38.919Z,50.40
2023-05-16T12:10:37.531Z,49.90
2023-05-16T12:13:36.108Z,55.00
2023-05-16T12:16:35.095Z,50.50
2023-05-16T12:19:33.287Z,59.50
2023-05-16T12:22:31.821Z,61.30
2023-05-16T12:25:36.277Z,58.20
2023-05-16T12:28:36.148Z,56.70
2023-05-16T12:31:38.759Z,52.20
2023-05-16T12:34:36.370Z,51.60
2023-05-16T12:37:34.392Z,51.90
2023-05-16T12:40:32.628Z,52.50
2023-05-16T12:43:30.924Z,56.80
2023-05-16T12:46:31.992Z,53.40
2023-05-16T12:49:30.049Z,56.60
2023-05-16T12:52:30.323Z,54.60
2023-05-16T12:55:28.337Z,55.80
2023-05-16T12:58:26.999Z,57.00
2023-05-16T13:01:25.164Z,56.10
2023-05-16T13:04:24.307Z,58.20
2023-05-16T13:07:22.500Z,64.60
2023-05-16T13:10:20.813Z,61.60
2023-05-16T13:13:32.533Z,62.00
2023-05-16T13:16:33.878Z,60.90
2023-05-16T13:19:34.401Z,64.00
2023-05-16T13:22:32.349Z,63.40
2023-05-16T13:25:30.622Z,63.20
2023-05-16T13:28:28.648Z,61.80
2023-05-16T13:31:26.773Z,62.40
2023-05-16T13:34:24.690Z,63.90
2023-05-16T13:37:25.046Z,64.40
2023-05-16T13:40:23.118Z,64.80
2023-05-16T13:43:21.191Z,67.00
2023-05-16T13:46:19.171Z,69.00
2023-05-16T13:49:17.251Z,62.60
2023-05-16T13:52:15.444Z,64.20
2023-05-16T13:55:13.564Z,63.20
2023-05-16T13:58:11.503Z,63.90
2023-05-16T14:01:09.604Z,67.10
2023-05-16T14:04:07.685Z,63.80
2023-05-16T14:07:06.021Z,68.50
2023-05-16T14:10:04.788Z,63.60
2023-05-16T14:13:03.135Z,66.90
2023-05-16T14:16:01.197Z,66.70
2023-05-16T14:18:59.230Z,64.80
2023-05-16T14:21:57.294Z,66.60
2023-05-16T14:24:55.275Z,61.30
2023-05-16T14:27:53.324Z,59.80
2023-05-16T14:30:51.209Z,57.50
2023-05-16T14:33:49.256Z,57.60
2023-05-16T14:36:47.463Z,57.40
2023-05-16T14:39:48.844Z,57.80
2023-05-16T14:42:46.920Z,58.20
2023-05-16T14:45:45.088Z,58.50
2023-05-16T14:48:43.080Z,59.30
2023-05-16T14:51:41.112Z,58.80
2023-05-16T14:54:39.033Z,58.90
2023-05-16T14:57:37.215Z,59.70
2023-05-16T15:00:35.287Z,59.30
2023-05-16T15:03:43.319Z,59.60
2023-05-16T15:06:49.177Z,59.70
2023-05-16T15:09:47.283Z,60.30
2023-05-16T15:12:45.170Z,60.80
2023-05-16T15:15:43.437Z,61.20
2023-05-16T15:18:42.233Z,61.70
2023-05-16T15:21:43.383Z,62.00
2023-05-16T15:24:41.632Z,60.90
2023-05-16T15:27:39.686Z,60.70
2023-05-16T15:30:37.557Z,61.00
2023-05-16T15:33:35.700Z,62.60
2023-05-16T15:36:33.998Z,62.90
2023-05-16T15:39:32.471Z,63.20
2023-05-16T15:42:30.729Z,63.20
2023-05-16T15:45:29.281Z,62.90
2023-05-16T15:48:27.606Z,62.40
2023-05-16T15:51:25.759Z,62.20
2023-05-16T15:54:23.722Z,61.90
2023-05-16T15:57:22.156Z,62.20
2023-05-16T16:00:20.211Z,62.00
2023-05-16T16:03:19.245Z,61.60
2023-05-16T16:06:17.240Z,61.30
2023-05-16T16:09:16.496Z,61.40
2023-05-16T16:12:14.389Z,61.20
2023-05-16T16:15:12.664Z,61.60
2023-05-16T16:18:12.183Z,61.80
2023-05-16T16:21:12.226Z,61.60
2023-05-16T16:24:10.210Z,62.00
2023-05-16T16:27:08.273Z,62.20
2023-05-16T16:30:06.838Z,62.40
2023-05-16T16:33:05.017Z,62.70
2023-05-16T16:36:03.186Z,62.20
2023-05-16T16:39:01.961Z,59.80
2023-05-16T16:41:59.918Z,60.10
2023-05-16T16:44:58.258Z,60.40
2023-05-16T16:47:56.281Z,60.50
2023-05-16T16:50:54.697Z,61.80
2023-05-16T16:53:52.644Z,62.00
2023-05-16T16:56:51.340Z,62.10
2023-05-16T16:59:50.157Z,62.60
2023-05-16T17:02:48.315Z,62.70
2023-05-16T17:05:46.510Z,62.80
2023-05-16T17:08:44.665Z,63.40
2023-05-16T17:11:43.068Z,64.10
2023-05-16T17:14:42.990Z,63.00
2023-05-16T17:17:41.063Z,61.20
2023-05-16T17:20:39.274Z,58.60
2023-05-16T17:23:37.275Z,57.10
2023-05-16T17:26:35.580Z,56.80
2023-05-16T17:29:34.154Z,56.60
2023-05-16T17:32:32.319Z,56.10
2023-05-16T17:35:30.682Z,56.40
2023-05-16T17:38:28.987Z,56.70
2023-05-16T17:41:26.972Z,55.50
2023-05-16T17:44:25.011Z,56.60
2023-05-16T17:47:23.736Z,56.30
2023-05-16T17:50:22.632Z,55.60
2023-05-16T17:53:20.679Z,55.40
2023-05-16T17:56:19.311Z,54.90
2023-05-16T17:59:18.367Z,55.40
2023-05-16T18:02:17.358Z,54.60
2023-05-16T18:05:17.188Z,54.20
2023-05-16T18:08:15.238Z,54.30
2023-05-16T18:11:13.165Z,54.00
2023-05-16T18:14:14.568Z,53.70
2023-05-16T18:17:13.891Z,53.90
2023-05-16T18:20:12.665Z,54.10
2023-05-16T18:23:10.758Z,54.00
2023-05-16T18:26:10.765Z,53.90
2023-05-16T18:29:11.244Z,53.60
2023-05-16T18:32:10.250Z,53.90
2023-05-16T18:35:08.695Z,53.70
2023-05-16T18:38:09.072Z,53.10
2023-05-16T18:41:10.478Z,54.70
2023-05-16T18:44:08.568Z,55.90
2023-05-16T18:47:06.823Z,57.10
2023-05-16T18:50:05.392Z,57.80
2023-05-16T18:53:03.468Z,58.30
2023-05-16T18:56:02.079Z,58.60
2023-05-16T18:59:00.664Z,58.80
2023-05-16T19:01:58.814Z,59.10
2023-05-16T19:04:58.867Z,59.10
2023-05-16T19:07:58.675Z,59.40
2023-05-16T19:10:57.348Z,58.90
2023-05-16T19:13:56.426Z,59.80
2023-05-16T19:16:54.333Z,60.80
2023-05-16T19:19:52.936Z,61.10
2023-05-16T19:22:51.055Z,61.30
2023-05-16T19:25:49.850Z,62.20
2023-05-16T19:28:47.737Z,62.10
2023-05-16T19:31:45.737Z,62.40
2023-05-16T19:34:44.213Z,62.40
2023-05-16T19:37:42.321Z,62.70
2023-05-16T19:40:40.335Z,63.10
2023-05-16T19:43:38.440Z,63.30
2023-05-16T19:46:36.370Z,64.50
2023-05-16T19:49:34.460Z,64.30
2023-05-16T19:52:32.377Z,63.90
2023-05-16T19:55:32.011Z,63.80
2023-05-16T19:58:30.227Z,63.60
2023-05-16T20:01:28.254Z,64.00
2023-05-16T20:04:26.988Z,64.60
2023-05-16T20:07:25.104Z,64.20
2023-05-16T20:10:23.044Z,64.50
2023-05-16T20:13:21.689Z,64.40
2023-05-16T20:16:21.083Z,64.60
2023-05-16T20:19:19.861Z,64.90
2023-05-16T20:22:17.874Z,64.80
2023-05-16T20:25:15.902Z,64.80
2023-05-16T20:28:13.783Z,64.80
2023-05-16T20:31:11.782Z,64.70
2023-05-16T20:34:09.937Z,64.40
2023-05-16T20:37:08.030Z,64.70
2023-05-16T20:40:06.748Z,65.80
2023-05-16T20:43:04.763Z,66.40
2023-05-16T20:46:02.661Z,66.70
2023-05-16T20:49:00.635Z,67.30
2023-05-16T20:51:58.581Z,67.40
2023-05-16T20:54:58.927Z,68.10
2023-05-16T20:57:57.267Z,68.00
2023-05-16T21:00:55.229Z,68.40
2023-05-16T21:03:53.152Z,68.50
2023-05-16T21:06:51.279Z,68.70
2023-05-16T21:09:49.213Z,69.60
2023-05-16T21:12:47.338Z,69.90
2023-05-16T21:15:45.301Z,70.40
2023-05-16T21:18:43.502Z,70.80
2023-05-16T21:21:41.456Z,71.40
2023-05-16T21:24:39.498Z,71.60
2023-05-16T21:27:37.585Z,72.10
2023-05-16T21:30:35.530Z,72.40
2023-05-16T21:33:33.378Z,73.00
2023-05-16T21:36:31.910Z,73.40
2023-05-16T21:39:29.771Z,73.50
2023-05-16T21:42:27.800Z,74.20
2023-05-16T21:45:25.791Z,74.60
2023-05-16T21:48:24.044Z,74.50
2023-05-16T21:51:21.979Z,74.10
2023-05-16T21:54:19.921Z,73.70
2023-05-16T21:57:18.084Z,73.80
2023-05-16T22:00:16.763Z,73.70
2023-05-16T22:03:14.790Z,74.10
2023-05-16T22:06:12.769Z,74.70
2023-05-16T22:09:12.253Z,75.40
2023-05-16T22:12:10.700Z,75.60
2023-05-16T22:15:08.978Z,76.50
2023-05-16T22:18:07.103Z,77.30
2023-05-16T22:21:05.111Z,77.60
2023-05-16T22:24:03.069Z,78.00
2023-05-16T22:27:00.910Z,78.30
2023-05-16T22:29:58.877Z,78.30
2023-05-16T22:32:57.608Z,78.90
2023-05-16T22:35:55.834Z,78.10
2023-05-16T22:38:53.714Z,77.80
2023-05-16T22:41:52.213Z,78.70
2023-05-16T22:44:50.074Z,79.00
2023-05-16T22:47:48.156Z,79.00
2023-05-16T22:50:46.037Z,78.90
2023-05-16T22:53:44.021Z,79.40
2023-05-16T22:56:41.976Z,79.00
2023-05-16T22:59:39.988Z,79.10
2023-05-16T23:02:38.011Z,78.90
2023-05-16T23:05:36.453Z,78.50
2023-05-16T23:08:34.321Z,78.60
2023-05-16T23:11:33.809Z,78.60
2023-05-16T23:14:31.727Z,78.70
2023-05-16T23:17:29.714Z,78.70
2023-05-16T23:20:27.606Z,78.70
2023-05-16T23:23:25.606Z,78.60
2023-05-16T23:26:23.501Z,78.80
2023-05-16T23:29:21.598Z,78.80
2023-05-16T23:32:19.550Z,78.50
2023-05-16T23:35:17.574Z,78.90
2023-05-16T23:38:15.425Z,78.60
2023-05-16T23:41:13.416Z,78.40
2023-05-16T23:44:11.256Z,78.10
2023-05-16T23:47:10.040Z,78.00
2023-05-16T23:50:08.275Z,77.70
2023-05-16T23:53:06.273Z,77.10
2023-05-16T23:56:04.279Z,76.30
2023-05-16T23:59:02.217Z,76.10
